| time (UTC) | temp F | wind direction | speed MPH | gust MPH | rain 1hr in | rain 24hr in | rain mn in | humidity % | barometer mb |
| 20260507185004 | 46 | 271 | 11.0 | 22.0 | 0.00 | 0.00 | 0.00 | 42 | 1010.5 |
| 20260507184709 | 46 | 268 | 8.0 | 16.0 | 0.00 | 0.00 | 0.00 | 38 | 1010.5 |
| 20260507184004 | 46 | 246 | 13.0 | 20.0 | 0.00 | 0.00 | 0.00 | 46 | 1010.4 |
| 20260507183209 | 46 | 267 | 5.0 | 6.0 | 0.00 | 0.00 | 0.00 | 40 | 1010.6 |
| 20260507183004 | 46 | 289 | 6.0 | 13.0 | 0.00 | 0.00 | 0.00 | 41 | 1010.7 |
| 20260507182004 | 46 | 309 | 6.0 | 16.0 | 0.00 | 0.00 | 0.00 | 43 | 1010.8 |
| 20260507181709 | 46 | 317 | 3.0 | 10.0 | 0.00 | 0.00 | 0.00 | 45 | 1010.8 |
| 20260507181004 | 46 | 250 | 10.0 | 20.0 | 0.00 | 0.00 | 0.00 | 44 | 1010.9 |
| 20260507180210 | 45 | 249 | 2.0 | 12.0 | 0.00 | 0.00 | 0.00 | 42 | 1010.7 |
| 20260507180005 | 45 | 270 | 6.0 | 17.0 | 0.00 | 0.00 | 0.00 | 44 | 1010.7 |
| 20260507175004 | 45 | 241 | 8.0 | 17.0 | 0.00 | 0.00 | 0.00 | 48 | 1010.9 |
| 20260507174710 | 45 | 252 | 8.0 | 8.0 | 0.00 | 0.00 | 0.00 | 48 | 1010.9 |
| 20260507174004 | 45 | 268 | 9.0 | 15.0 | 0.00 | 0.00 | 0.00 | 48 | 1011.1 |
| 20260507173209 | 45 | 251 | 5.0 | 6.0 | 0.00 | 0.00 | 0.00 | 44 | 1011.2 |
| 20260507173005 | 45 | 252 | 3.0 | 12.0 | 0.00 | 0.00 | 0.00 | 45 | 1011.2 |
| 20260507172004 | 44 | 256 | 9.0 | 16.0 | 0.00 | 0.00 | 0.00 | 49 | 1011.3 |
| 20260507171710 | 44 | 243 | 10.0 | 13.0 | 0.00 | 0.00 | 0.00 | 47 | 1011.4 |
| 20260507171005 | 45 | 251 | 5.0 | 12.0 | 0.00 | 0.00 | 0.00 | 44 | 1011.5 |
| 20260507170209 | 45 | 273 | 6.0 | 9.0 | 0.00 | 0.00 | 0.00 | 45 | 1011.5 |
| 20260507164709 | 44 | 258 | 8.0 | 9.0 | 0.00 | 0.00 | 0.00 | 46 | 1011.5 |
| 20260507164004 | 44 | 240 | 7.0 | 14.0 | 0.00 | 0.00 | 0.00 | 46 | 1011.6 |
| 20260507163210 | 44 | 273 | 5.0 | 6.0 | 0.00 | 0.00 | 0.00 | 44 | 1011.6 |
| 20260507163005 | 44 | 262 | 4.0 | 10.0 | 0.00 | 0.00 | 0.00 | 44 | 1011.7 |
| 20260507162004 | 43 | 30 | 2.0 | 10.0 | 0.00 | 0.00 | 0.00 | 47 | 1011.9 |
| 20260507161709 | 43 | 15 | 3.0 | 7.0 | 0.00 | 0.00 | 0.00 | 47 | 1011.8 |
| 20260507161004 | 43 | 273 | 6.0 | 12.0 | 0.00 | 0.00 | 0.00 | 46 | 1011.9 |
| 20260507160209 | 43 | 259 | 3.0 | 5.0 | 0.00 | 0.00 | 0.00 | 48 | 1011.8 |
| 20260507160004 | 43 | 275 | 4.0 | 10.0 | 0.00 | 0.00 | 0.00 | 47 | 1011.8 |
| 20260507155004 | 43 | 334 | 3.0 | 10.0 | 0.00 | 0.00 | 0.00 | 46 | 1011.8 |
| 20260507154709 | 43 | 286 | 3.0 | 3.0 | 0.00 | 0.00 | 0.00 | 49 | 1011.8 |
| 20260507154004 | 43 | 262 | 7.0 | 12.0 | 0.00 | 0.00 | 0.00 | 49 | 1011.8 |
| 20260507153209 | 43 | 254 | 9.0 | 12.0 | 0.00 | 0.00 | 0.00 | 51 | 1011.8 |
| 20260507153004 | 43 | 278 | 2.0 | 12.0 | 0.00 | 0.00 | 0.00 | 47 | 1011.8 |
| 20260507152004 | 43 | 267 | 3.0 | 12.0 | 0.00 | 0.00 | 0.00 | 48 | 1011.8 |
| 20260507151710 | 43 | 274 | 2.0 | 6.0 | 0.00 | 0.00 | 0.00 | 46 | 1011.9 |
| 20260507150210 | 42 | 326 | 5.0 | 9.0 | 0.00 | 0.00 | 0.00 | 51 | 1012.1 |
| 20260507150005 | 42 | 260 | 3.0 | 18.0 | 0.00 | 0.00 | 0.00 | 54 | 1012.0 |
| 20260507145004 | 42 | 258 | 12.0 | 17.0 | 0.00 | 0.00 | 0.00 | 52 | 1012.0 |
| 20260507144709 | 42 | 256 | 13.0 | 17.0 | 0.00 | 0.00 | 0.00 | 53 | 1011.9 |
| 20260507143209 | 41 | 257 | 7.0 | 12.0 | 0.00 | 0.00 | 0.00 | 52 | 1012.1 |
| 20260507142004 | 41 | 285 | 9.0 | 14.0 | 0.00 | 0.00 | 0.00 | 55 | 1012.2 |
| 20260507141710 | 41 | 249 | 6.0 | 12.0 | 0.00 | 0.00 | 0.00 | 56 | 1012.2 |
| 20260507141004 | 41 | 248 | 10.0 | 15.0 | 0.00 | 0.00 | 0.00 | 57 | 1012.3 |
| 20260507140209 | 41 | 264 | 10.0 | 12.0 | 0.00 | 0.00 | 0.00 | 58 | 1012.4 |
| 20260507140005 | 40 | 261 | 8.0 | 14.0 | 0.00 | 0.00 | 0.00 | 56 | 1012.3 |
| 20260507135005 | 40 | 287 | 5.0 | 12.0 | 0.00 | 0.00 | 0.00 | 59 | 1012.5 |
| 20260507134709 | 40 | 263 | 7.0 | 9.0 | 0.00 | 0.00 | 0.00 | 61 | 1012.5 |
| 20260507134004 | 39 | 290 | 4.0 | 12.0 | 0.00 | 0.00 | 0.00 | 63 | 1012.5 |
| 20260507133209 | 39 | 276 | 5.0 | 8.0 | 0.00 | 0.00 | 0.00 | 62 | 1012.5 |
| 20260507133004 | 39 | 266 | 5.0 | 10.0 | 0.00 | 0.00 | 0.00 | 64 | 1012.6 |
| 20260507132004 | 39 | 258 | 5.0 | 12.0 | 0.00 | 0.00 | 0.00 | 67 | 1012.5 |
| 20260507131710 | 39 | 280 | 5.0 | 10.0 | 0.00 | 0.00 | 0.00 | 65 | 1012.6 |
| 20260507130210 | 39 | 248 | 8.0 | 12.0 | 0.00 | 0.00 | 0.00 | 68 | 1012.7 |
| 20260507130004 | 39 | 265 | 6.0 | 13.0 | 0.00 | 0.00 | 0.00 | 66 | 1012.7 |
| 20260507124710 | 38 | 263 | 6.0 | 7.0 | 0.00 | 0.00 | 0.00 | 68 | 1012.6 |
| 20260507124004 | 38 | 248 | 6.0 | 9.0 | 0.00 | 0.00 | 0.00 | 70 | 1012.5 |
| 20260507123209 | 37 | 252 | 5.0 | 7.0 | 0.00 | 0.00 | 0.00 | 73 | 1012.6 |
| 20260507123004 | 37 | 241 | 5.0 | 7.0 | 0.00 | 0.00 | 0.00 | 71 | 1012.6 |
| 20260507122004 | 37 | 245 | 3.0 | 7.0 | 0.00 | 0.00 | 0.00 | 72 | 1012.7 |
| 20260507121709 | 37 | 233 | 3.0 | 5.0 | 0.00 | 0.00 | 0.00 | 72 | 1012.6 |
| 20260507121004 | 37 | 233 | 3.0 | 6.0 | 0.00 | 0.00 | 0.00 | 73 | 1012.6 |
| 20260507120209 | 37 | 250 | 5.0 | 5.0 | 0.00 | 0.00 | 0.00 | 72 | 1012.6 |
| 20260507120005 | 37 | 255 | 3.0 | 5.0 | 0.00 | 0.00 | 0.00 | 73 | 1012.7 |
| 20260507115004 | 36 | 233 | 3.0 | 6.0 | 0.00 | 0.00 | 0.00 | 74 | 1012.5 |
| 20260507114710 | 36 | 240 | 3.0 | 3.0 | 0.00 | 0.00 | 0.00 | 73 | 1012.6 |
| 20260507114004 | 36 | 246 | 5.0 | 7.0 | 0.00 | 0.00 | 0.00 | 74 | 1012.6 |
| 20260507113210 | 36 | 240 | 5.0 | 5.0 | 0.00 | 0.00 | 0.00 | 72 | 1012.6 |
| 20260507113004 | 36 | 239 | 5.0 | 6.0 | 0.00 | 0.00 | 0.00 | 72 | 1012.5 |
| 20260507112004 | 36 | 252 | 2.0 | 5.0 | 0.00 | 0.00 | 0.00 | 73 | 1012.5 |
| 20260507111709 | 36 | 252 | 3.0 | 3.0 | 0.00 | 0.00 | 0.00 | 73 | 1012.4 |
| 20260507111004 | 36 | 247 | 3.0 | 6.0 | 0.00 | 0.00 | 0.00 | 73 | 1012.5 |
| 20260507110210 | 36 | 256 | 3.0 | 5.0 | 0.00 | 0.00 | 0.00 | 73 | 1012.5 |
| 20260507110004 | 36 | 255 | 3.0 | 5.0 | 0.00 | 0.00 | 0.00 | 73 | 1012.5 |
| 20260507105004 | 36 | 242 | 3.0 | 5.0 | 0.00 | 0.00 | 0.00 | 74 | 1012.4 |
| 20260507104710 | 36 | 240 | 3.0 | 5.0 | 0.00 | 0.00 | 0.00 | 72 | 1012.4 |
| 20260507104004 | 36 | 262 | 3.0 | 5.0 | 0.00 | 0.00 | 0.00 | 73 | 1012.4 |
| 20260507103210 | 36 | 249 | 3.0 | 3.0 | 0.00 | 0.00 | 0.00 | 73 | 1012.4 |
| 20260507102004 | 36 | 265 | 4.0 | 6.0 | 0.00 | 0.00 | 0.00 | 73 | 1012.3 |
| 20260507101709 | 36 | 252 | 3.0 | 3.0 | 0.00 | 0.00 | 0.00 | 72 | 1012.3 |
| 20260507101004 | 37 | 245 | 3.0 | 6.0 | 0.00 | 0.00 | 0.00 | 73 | 1012.3 |
| 20260507100209 | 37 | 247 | 3.0 | 3.0 | 0.00 | 0.00 | 0.00 | 71 | 1012.2 |
| 20260507100005 | 37 | 234 | 5.0 | 6.0 | 0.00 | 0.00 | 0.00 | 73 | 1012.3 |
| 20260507095004 | 37 | 247 | 3.0 | 6.0 | 0.00 | 0.00 | 0.00 | 72 | 1012.4 |
| 20260507094708 | 37 | 241 | 5.0 | 6.0 | 0.00 | 0.00 | 0.00 | 73 | 1012.4 |
| 20260507094005 | 37 | 251 | 5.0 | 6.0 | 0.00 | 0.00 | 0.00 | 72 | 1012.4 |
| 20260507093210 | 37 | 248 | 3.0 | 5.0 | 0.00 | 0.00 | 0.00 | 72 | 1012.5 |
| 20260507093004 | 37 | 242 | 4.0 | 6.0 | 0.00 | 0.00 | 0.00 | 72 | 1012.4 |
| 20260507092004 | 37 | 246 | 4.0 | 7.0 | 0.00 | 0.00 | 0.00 | 71 | 1012.4 |
| 20260507091709 | 37 | 238 | 6.0 | 7.0 | 0.00 | 0.00 | 0.00 | 71 | 1012.4 |
| 20260507090208 | 37 | 246 | 3.0 | 5.0 | 0.00 | 0.00 | 0.00 | 72 | 1012.5 |
| 20260507090005 | 37 | 248 | 3.0 | 5.0 | 0.00 | 0.00 | 0.00 | 71 | 1012.5 |
| 20260507085003 | 37 | 238 | 3.0 | 6.0 | 0.00 | 0.00 | 0.00 | 71 | 1012.6 |
| 20260507084710 | 37 | 238 | 5.0 | 5.0 | 0.00 | 0.00 | 0.00 | 70 | 1012.5 |
| 20260507084004 | 37 | 240 | 4.0 | 5.0 | 0.00 | 0.00 | 0.00 | 70 | 1012.5 |
| 20260507083210 | 37 | 248 | 3.0 | 3.0 | 0.00 | 0.00 | 0.00 | 69 | 1012.7 |
| 20260507083004 | 37 | 248 | 4.0 | 6.0 | 0.00 | 0.00 | 0.00 | 71 | 1012.7 |
| 20260507082003 | 37 | 244 | 3.0 | 7.0 | 0.00 | 0.00 | 0.00 | 71 | 1012.7 |
| 20260507081709 | 37 | 247 | 5.0 | 6.0 | 0.00 | 0.00 | 0.00 | 70 | 1012.7 |
| 20260507081004 | 37 | 242 | 3.0 | 5.0 | 0.00 | 0.00 | 0.00 | 71 | 1012.7 |
| 20260507080209 | 37 | 258 | 2.0 | 2.0 | 0.00 | 0.00 | 0.00 | 70 | 1012.7 |
| 20260507080004 | 37 | 259 | 2.0 | 5.0 | 0.00 | 0.00 | 0.00 | 71 | 1012.8 |
| 20260507074709 | 37 | 257 | 2.0 | 3.0 | 0.00 | 0.00 | 0.00 | 66 | 1012.7 |
| 20260507074004 | 37 | 252 | 3.0 | 5.0 | 0.00 | 0.00 | 0.00 | 68 | 1012.8 |
| 20260507073208 | 37 | 252 | 2.0 | 3.0 | 0.00 | 0.00 | 0.00 | 69 | 1012.8 |
| 20260507073004 | 37 | 248 | 2.0 | 5.0 | 0.00 | 0.00 | 0.00 | 68 | 1012.9 |
| 20260507072004 | 37 | 235 | 3.0 | 6.0 | 0.00 | 0.00 | 0.00 | 68 | 1012.9 |
| 20260507071710 | 37 | 245 | 3.0 | 5.0 | 0.00 | 0.00 | 0.00 | 68 | 1013.0 |
| 20260507071004 | 37 | 240 | 3.0 | 5.0 | 0.00 | 0.00 | 0.00 | 70 | 1013.1 |
| 20260507070209 | 37 | 222 | 3.0 | 5.0 | 0.00 | 0.00 | 0.00 | 67 | 1013.2 |
| 20260507070007 | 37 | 222 | 3.0 | 6.0 | 0.00 | 0.00 | 0.00 | 68 | 1013.2 |
| 20260507065004 | 38 | 221 | 3.0 | 6.0 | 0.00 | 0.00 | 0.00 | 65 | 1013.3 |
| 20260507064708 | 38 | 223 | 3.0 | 3.0 | 0.00 | 0.00 | 0.00 | 65 | 1013.3 |
| 20260507064004 | 38 | 228 | 5.0 | 6.0 | 0.00 | 0.00 | 0.00 | 68 | 1013.3 |
| 20260507063209 | 38 | 232 | 5.0 | 6.0 | 0.00 | 0.00 | 0.00 | 66 | 1013.4 |
| 20260507063004 | 38 | 236 | 5.0 | 6.0 | 0.00 | 0.00 | 0.00 | 69 | 1013.4 |
| 20260507062004 | 38 | 248 | 5.0 | 7.0 | 0.00 | 0.00 | 0.00 | 67 | 1013.5 |
| 20260507061710 | 38 | 245 | 5.0 | 6.0 | 0.00 | 0.00 | 0.00 | 69 | 1013.5 |
| 20260507061004 | 38 | 252 | 3.0 | 6.0 | 0.00 | 0.00 | 0.00 | 68 | 1013.6 |
| 20260507060209 | 38 | 253 | 5.0 | 5.0 | 0.00 | 0.00 | 0.00 | 66 | 1013.6 |
| 20260507060004 | 38 | 246 | 3.0 | 5.0 | 0.00 | 0.00 | 0.00 | 66 | 1013.6 |
| 20260507055004 | 38 | 252 | 3.0 | 6.0 | 0.00 | 0.00 | 0.00 | 67 | 1013.6 |
| 20260507054708 | 38 | 253 | 2.0 | 3.0 | 0.00 | 0.00 | 0.00 | 67 | 1013.7 |
| 20260507053209 | 38 | 237 | 3.0 | 5.0 | 0.00 | 0.00 | 0.00 | 67 | 1013.8 |
| 20260507053005 | 38 | 249 | 3.0 | 6.0 | 0.00 | 0.00 | 0.00 | 68 | 1013.7 |
| 20260507051709 | 38 | 234 | 2.0 | 3.0 | 0.00 | 0.00 | 0.00 | 66 | 1013.9 |
| 20260507051003 | 38 | 242 | 3.0 | 5.0 | 0.00 | 0.00 | 0.00 | 65 | 1013.9 |
| 20260507050209 | 38 | 253 | 3.0 | 3.0 | 0.00 | 0.00 | 0.00 | 66 | 1014.0 |
| 20260507050003 | 38 | 252 | 3.0 | 5.0 | 0.00 | 0.00 | 0.00 | 66 | 1014.0 |
| 20260507045004 | 39 | 244 | 3.0 | 7.0 | 0.00 | 0.00 | 0.00 | 65 | 1014.1 |
| 20260507044709 | 38 | 251 | 3.0 | 3.0 | 0.00 | 0.00 | 0.00 | 65 | 1014.0 |
| 20260507044004 | 39 | 252 | 3.0 | 5.0 | 0.00 | 0.00 | 0.00 | 66 | 1014.0 |
| 20260507043209 | 39 | 245 | 3.0 | 5.0 | 0.00 | 0.00 | 0.00 | 67 | 1014.2 |
| 20260507043003 | 39 | 249 | 4.0 | 6.0 | 0.00 | 0.00 | 0.00 | 64 | 1014.1 |
| 20260507042004 | 39 | 256 | 4.0 | 6.0 | 0.00 | 0.00 | 0.00 | 65 | 1014.2 |
| 20260507041710 | 39 | 239 | 5.0 | 6.0 | 0.00 | 0.00 | 0.00 | 65 | 1014.2 |
| 20260507041004 | 39 | 238 | 4.0 | 5.0 | 0.00 | 0.00 | 0.00 | 64 | 1014.2 |
| 20260507040210 | 39 | 250 | 3.0 | 5.0 | 0.00 | 0.00 | 0.00 | 66 | 1014.2 |
| 20260507040003 | 39 | 255 | 3.0 | 6.0 | 0.00 | 0.00 | 0.00 | 63 | 1014.3 |
| 20260507034710 | 39 | 248 | 2.0 | 3.0 | 0.00 | 0.00 | 0.00 | 64 | 1014.3 |
| 20260507034004 | 39 | 259 | 3.0 | 7.0 | 0.00 | 0.00 | 0.00 | 65 | 1014.3 |
| 20260507033209 | 39 | 262 | 5.0 | 6.0 | 0.00 | 0.00 | 0.00 | 64 | 1014.4 |
| 20260507033003 | 39 | 242 | 3.0 | 5.0 | 0.00 | 0.00 | 0.00 | 64 | 1014.3 |
| 20260507032004 | 39 | 249 | 3.0 | 5.0 | 0.00 | 0.00 | 0.00 | 63 | 1014.5 |
| 20260507031709 | 39 | 244 | 3.0 | 5.0 | 0.00 | 0.00 | 0.00 | 64 | 1014.5 |
| 20260507031004 | 39 | 251 | 3.0 | 5.0 | 0.00 | 0.00 | 0.00 | 63 | 1014.5 |
| 20260507030209 | 39 | 244 | 2.0 | 3.0 | 0.00 | 0.00 | 0.00 | 63 | 1014.5 |
| 20260507024709 | 39 | 250 | 5.0 | 3.0 | 0.00 | 0.00 | 0.00 | 62 | 1014.5 |
| 20260507024004 | 39 | 242 | 5.0 | 6.0 | 0.00 | 0.00 | 0.00 | 62 | 1014.5 |
| 20260507023208 | 40 | 242 | 3.0 | 5.0 | 0.00 | 0.00 | 0.00 | 63 | 1014.6 |
| 20260507023004 | 40 | 242 | 3.0 | 7.0 | 0.00 | 0.00 | 0.00 | 62 | 1014.6 |
| 20260507022004 | 40 | 239 | 5.0 | 7.0 | 0.00 | 0.00 | 0.00 | 63 | 1014.6 |
| 20260507021709 | 40 | 246 | 5.0 | 6.0 | 0.00 | 0.00 | 0.00 | 61 | 1014.6 |
| 20260507021004 | 40 | 265 | 3.0 | 6.0 | 0.00 | 0.00 | 0.00 | 61 | 1014.6 |
| 20260507020209 | 40 | 250 | 5.0 | 6.0 | 0.00 | 0.00 | 0.00 | 61 | 1014.5 |
| 20260507020004 | 40 | 261 | 5.0 | 8.0 | 0.00 | 0.00 | 0.00 | 62 | 1014.5 |
| 20260507015004 | 40 | 264 | 6.0 | 9.0 | 0.00 | 0.00 | 0.00 | 59 | 1014.5 |
| 20260507014708 | 40 | 249 | 5.0 | 6.0 | 0.00 | 0.00 | 0.00 | 62 | 1014.4 |
| 20260507014003 | 40 | 258 | 6.0 | 10.0 | 0.00 | 0.00 | 0.00 | 61 | 1014.4 |
| 20260507013209 | 40 | 267 | 5.0 | 6.0 | 0.00 | 0.00 | 0.00 | 59 | 1014.5 |
| 20260507013004 | 40 | 245 | 6.0 | 12.0 | 0.00 | 0.00 | 0.00 | 61 | 1014.5 |
| 20260507012004 | 40 | 263 | 7.0 | 12.0 | 0.00 | 0.00 | 0.00 | 59 | 1014.4 |
| 20260507011709 | 40 | 253 | 8.0 | 9.0 | 0.00 | 0.00 | 0.00 | 59 | 1014.4 |
| 20260507011005 | 40 | 246 | 5.0 | 10.0 | 0.00 | 0.00 | 0.00 | 60 | 1014.3 |
| 20260507010211 | 40 | 255 | 7.0 | 8.0 | 0.00 | 0.00 | 0.00 | 58 | 1014.3 |
| 20260507010005 | 40 | 237 | 3.0 | 8.0 | 0.00 | 0.00 | 0.00 | 58 | 1014.2 |
| 20260507005005 | 40 | 254 | 6.0 | 9.0 | 0.00 | 0.00 | 0.00 | 62 | 1014.3 |
| 20260507004710 | 40 | 269 | 6.0 | 8.0 | 0.00 | 0.00 | 0.00 | 59 | 1014.3 |
| 20260507004005 | 40 | 273 | 5.0 | 12.0 | 0.00 | 0.00 | 0.00 | 58 | 1014.2 |
| 20260507003211 | 40 | 251 | 7.0 | 8.0 | 0.00 | 0.00 | 0.00 | 58 | 1014.3 |
| 20260507003005 | 40 | 261 | 6.0 | 12.0 | 0.00 | 0.00 | 0.00 | 59 | 1014.3 |
| 20260507001710 | 40 | 254 | 6.0 | 8.0 | 0.00 | 0.00 | 0.00 | 58 | 1014.2 |
| 20260507001006 | 41 | 256 | 4.0 | 10.0 | 0.00 | 0.00 | 0.00 | 60 | 1014.3 |
| 20260507000212 | 41 | 257 | 3.0 | 8.0 | 0.00 | 0.00 | 0.00 | 60 | 1014.3 |
| 20260507000005 | 41 | 256 | 7.0 | 12.0 | 0.00 | 0.00 | 0.00 | 57 | 1014.3 |
| 20260506235005 | 40 | 257 | 6.0 | 13.0 | 0.00 | 0.00 | 0.00 | 59 | 1014.2 |
| 20260506234710 | 41 | 260 | 7.0 | 9.0 | 0.00 | 0.00 | 0.00 | 60 | 1014.3 |
| 20260506234005 | 41 | 262 | 6.0 | 12.0 | 0.00 | 0.00 | 0.00 | 62 | 1014.3 |
| 20260506233211 | 41 | 269 | 6.0 | 6.0 | 0.00 | 0.00 | 0.00 | 59 | 1014.3 |
| 20260506233006 | 41 | 253 | 9.0 | 16.0 | 0.00 | 0.00 | 0.00 | 59 | 1014.4 |
| 20260506232006 | 41 | 267 | 9.0 | 16.0 | 0.00 | 0.00 | 0.00 | 61 | 1014.4 |
| 20260506231710 | 41 | 270 | 10.0 | 10.0 | 0.00 | 0.00 | 0.00 | 62 | 1014.4 |
| 20260506230210 | 41 | 257 | 10.0 | 16.0 | 0.00 | 0.00 | 0.00 | 62 | 1014.2 |
| 20260506230005 | 41 | 259 | 10.0 | 15.0 | 0.00 | 0.00 | 0.00 | 60 | 1014.3 |
| 20260506225006 | 41 | 269 | 6.0 | 15.0 | 0.00 | 0.00 | 0.00 | 57 | 1014.4 |
| 20260506224711 | 41 | 259 | 12.0 | 15.0 | 0.00 | 0.00 | 0.00 | 60 | 1014.4 |
| 20260506223211 | 41 | 263 | 9.0 | 12.0 | 0.00 | 0.00 | 0.00 | 57 | 1014.2 |
| 20260506223005 | 41 | 269 | 10.0 | 14.0 | 0.00 | 0.00 | 0.00 | 58 | 1014.3 |
| 20260506221711 | 41 | 255 | 10.0 | 12.0 | 0.00 | 0.00 | 0.00 | 62 | 1014.3 |
| 20260506221005 | 41 | 246 | 9.0 | 20.0 | 0.00 | 0.00 | 0.00 | 59 | 1014.3 |
| 20260506220210 | 41 | 259 | 8.0 | 18.0 | 0.00 | 0.00 | 0.00 | 57 | 1014.1 |
| 20260506220006 | 41 | 256 | 9.0 | 18.0 | 0.00 | 0.00 | 0.00 | 57 | 1014.2 |
| 20260506215006 | 41 | 249 | 5.0 | 14.0 | 0.00 | 0.00 | 0.00 | 57 | 1014.1 |
| 20260506214710 | 41 | 274 | 6.0 | 9.0 | 0.00 | 0.00 | 0.00 | 59 | 1014.2 |
| 20260506213210 | 41 | 244 | 9.0 | 13.0 | 0.00 | 0.00 | 0.00 | 62 | 1014.1 |
| 20260506213005 | 40 | 257 | 7.0 | 17.0 | 0.00 | 0.00 | 0.00 | 59 | 1014.1 |
| 20260506212005 | 41 | 267 | 9.0 | 17.0 | 0.00 | 0.00 | 0.00 | 58 | 1014.1 |
| 20260506211711 | 40 | 245 | 9.0 | 12.0 | 0.00 | 0.00 | 0.00 | 59 | 1014.1 |
| 20260506210211 | 40 | 255 | 9.0 | 13.0 | 0.00 | 0.00 | 0.00 | 61 | 1014.3 |
| 20260506210006 | 40 | 261 | 9.0 | 15.0 | 0.00 | 0.00 | 0.00 | 58 | 1014.3 |
| 20260506205005 | 40 | 253 | 7.0 | 17.0 | 0.00 | 0.00 | 0.00 | 58 | 1014.5 |
| 20260506204711 | 40 | 265 | 10.0 | 14.0 | 0.00 | 0.00 | 0.00 | 60 | 1014.5 |
| 20260506204006 | 40 | 252 | 10.0 | 17.0 | 0.00 | 0.00 | 0.00 | 58 | 1014.6 |
| 20260506203209 | 40 | 261 | 7.0 | 8.0 | 0.00 | 0.00 | 0.00 | 59 | 1014.6 |
| 20260506203005 | 40 | 251 | 5.0 | 15.0 | 0.00 | 0.00 | 0.00 | 61 | 1014.6 |
| 20260506202005 | 39 | 281 | 7.0 | 15.0 | 0.00 | 0.00 | 0.00 | 57 | 1014.6 |
| 20260506201710 | 39 | 256 | 6.0 | 10.0 | 0.00 | 0.00 | 0.00 | 57 | 1014.6 |
| 20260506200210 | 39 | 255 | 13.0 | 16.0 | 0.00 | 0.00 | 0.00 | 64 | 1014.7 |
| 20260506195005 | 39 | 270 | 7.0 | 17.0 | 0.00 | 0.00 | 0.00 | 59 | 1014.8 |
| 20260506194710 | 39 | 249 | 12.0 | 13.0 | 0.00 | 0.00 | 0.00 | 60 | 1014.6 |
| 20260506194005 | 39 | 252 | 9.0 | 16.0 | 0.00 | 0.00 | 0.00 | 61 | 1014.7 |
| 20260506193210 | 39 | 266 | 10.0 | 16.0 | 0.00 | 0.00 | 0.00 | 60 | 1014.7 |
| 20260506192005 | 39 | 249 | 13.0 | 15.0 | 0.00 | 0.00 | 0.00 | 61 | 1014.7 |
| 20260506191711 | 39 | 249 | 10.0 | 14.0 | 0.00 | 0.00 | 0.00 | 63 | 1014.7 |
| 20260506191005 | 38 | 269 | 7.0 | 15.0 | 0.00 | 0.00 | 0.00 | 60 | 1014.8 |
| 20260506190210 | 39 | 254 | 10.0 | 13.0 | 0.00 | 0.00 | 0.00 | 61 | 1014.8 |
| 20260506190006 | 39 | 266 | 9.0 | 15.0 | 0.00 | 0.00 | 0.00 | 59 | 1014.7 |